Latest Coastal Weather Observations for Cooktown

IDQ60701

Issued at 5:05 am EST Monday 24 November 2014 (issued every 10 minutes, with the page automatically refreshed every 10 minutes)

About coastal observations | Map of coastal stations | Coastal observations for QLD | Marine services | Other Formats
Station Details ID: 031209 Name: COOKTOWN AIRPORT Lat: -15.45 Lon: 145.19 Height: 4.8 m
Data from the previous 72 hours. | See also: Recent months at Cooktown
Date/Time
EST
Temp

°C
Wind Pressure Rain
since 9am
mm
Weather Cloud Vis
km
Sea
Height
m
Swell
Dir
 
Speed
knots
Gust
knots
hPa Trend Height
m
Period
s
Dir
24/05:00am 24.9 ESE 7 9 1010.9 - 1.2 - - 10 - - - -
24/04:30am 24.7 ESE 5 7 1011.0 - 1.2 - - 10 - - - -
24/04:00am 24.8 ESE 7 10 1010.9 - 1.2 - Partly cloudy 10 - - - -
24/03:36am 25.0 ESE 9 14 1011.0 - 1.2 - Partly cloudy 10 - - - -
24/03:30am 25.2 ESE 9 14 1011.0 - 1.2 - Partly cloudy 10 - - - -
24/03:29am 25.2 ESE 9 14 1011.0 - 1.2 - Partly cloudy 10 - - - -
24/03:19am 25.0 ESE 10 22 1011.1 - 1.2 - Partly cloudy 5 - - - -
24/03:18am 25.0 ESE 10 22 1011.1 - 1.2 - Partly cloudy 4 - - - -
24/03:10am 25.3 ESE 10 17 1011.1 - 0.8 - Partly cloudy 5 - - - -
24/03:00am 26.4 ESE 10 13 1011.0 - 0.0 - Cloudy 10 - - - -
24/02:49am 26.4 ESE 9 12 1011.2 - 0.0 - Partly cloudy 10 - - - -
24/02:30am 26.2 ESE 10 14 1011.3 - 0.0 - Partly cloudy 10 - - - -
24/02:00am 26.3 ESE 10 14 1011.5 - 0.0 - Partly cloudy 10 - - - -
24/01:52am 26.2 ESE 9 14 1011.5 - 0.0 - Partly cloudy 10 - - - -
24/01:30am 26.4 ESE 11 16 1011.5 - 0.0 - Partly cloudy 10 - - - -
24/01:00am 26.2 ESE 11 16 1011.9 - 0.0 - Partly cloudy 10 - - - -
24/12:30am 26.2 ESE 9 13 1012.4 - 0.0 - Partly cloudy 10 - - - -
24/12:00am 26.2 E 10 14 1012.9 - 0.0 - - 10 - - - -
 
Date/Time
EST
Temp

°C
Wind Pressure Rain
since 9am
mm
Weather Cloud Vis
km
Sea
Height
m
Swell
Dir
 
Speed
knots
Gust
knots
hPa Trend Height
m
Period
s
Dir
23/11:30pm 26.2 ESE 10 14 1013.2 - 0.0 - Partly cloudy 10 - - - -
23/11:00pm 26.2 ESE 10 13 1013.3 - 0.0 - Partly cloudy 10 - - - -
23/10:30pm 26.4 ESE 9 14 1013.6 - 0.0 - Partly cloudy 10 - - - -
23/10:00pm 26.4 ESE 10 15 1013.5 - 0.0 - Partly cloudy 10 - - - -
23/09:30pm 26.3 ESE 10 16 1013.1 - 0.0 - Partly cloudy 10 - - - -
23/09:00pm 26.3 ESE 9 13 1013.0 - 0.0 - Partly cloudy 10 - - - -
23/08:30pm 26.5 ESE 10 14 1013.0 - 0.0 - Partly cloudy 10 - - - -
23/08:00pm 26.4 ESE 8 12 1012.7 - 0.0 - Partly cloudy 10 - - - -
23/07:30pm 26.7 ESE 11 15 1012.6 - 0.0 - - 10 - - - -
23/07:00pm 26.8 ESE 8 16 1011.8 - 0.0 - Partly cloudy 10 - - - -
23/06:30pm 27.1 ESE 10 14 1011.6 - 0.0 - - 10 - - - -
23/06:00pm 27.7 ESE 14 17 1011.2 - 0.0 - Mostly clear 10 - - - -
23/05:30pm 28.4 ESE 10 15 1011.1 - 0.0 - Partly cloudy 10 - - - -
23/05:00pm 29.1 ESE 12 20 1011.0 - 0.0 - Partly cloudy 10 - - - -
23/04:30pm 29.9 ESE 12 20 1011.0 - 0.0 - Partly cloudy 10 - - - -
23/04:00pm 29.8 E 15 20 1010.9 - 0.0 - Partly cloudy 10 - - - -
23/03:30pm 29.6 E 15 21 1011.0 - 0.0 - Partly cloudy 10 - - - -
23/03:00pm 29.6 E 14 22 1011.3 - 0.0 - Mostly clear 10 - - - -
23/02:30pm 31.3 E 16 22 1011.6 - 0.0 - Partly cloudy 10 - - - -
23/02:00pm 30.8 E 15 20 1011.9 - 0.0 - Partly cloudy 10 - - - -
23/01:30pm 31.4 E 15 21 1012.3 - 0.0 - - 10 - - - -
23/01:00pm 31.0 E 16 21 1012.7 - 0.0 - - 10 - - - -
23/12:30pm 31.1 ESE 15 21 1013.0 - 0.0 - Partly cloudy 10 - - - -
23/12:00pm 30.3 E 16 21 1013.1 - 0.0 - Mostly clear 10 - - - -
23/11:30am 30.9 ESE 12 17 1013.5 - 0.0 - Partly cloudy 10 - - - -
23/11:00am 30.2 ESE 11 15 1014.0 - 0.0 - Partly cloudy 10 - - - -
23/10:30am 28.8 SE 10 16 1014.3 - 0.0 - Partly cloudy 10 - - - -
23/10:00am 30.4 E 13 16 1014.4 - 0.0 - Partly cloudy 10 - - - -
23/09:30am 29.9 ESE 11 19 1014.5 - 0.0 - Partly cloudy 10 - - - -
23/09:00am 28.1 ESE 11 15 1014.3 R 0.0 Fine Partly cloudy 35 - - - -
23/08:30am 28.4 E 11 15 1014.2 - 0.0 - Partly cloudy 10 - - - -
23/08:00am 28.4 E 10 15 1014.1 - 0.0 - Partly cloudy 10 - - - -
23/07:30am 27.9 E 10 14 1014.0 - 0.0 - Partly cloudy 10 - - - -
23/07:00am 27.7 ESE 10 14 1013.6 - 0.0 - Partly cloudy 10 - - - -
23/06:30am 26.5 ESE 8 14 1013.1 - 0.0 - Partly cloudy 10 - - - -
23/06:00am 25.9 ESE 8 11 1012.5 - 0.0 - Cloudy 10 - - - -
23/05:30am 25.6 SE 6 11 1012.2 - 0.0 - Partly cloudy 10 - - - -
23/05:00am 25.1 SE 5 7 1012.0 - 0.0 - Partly cloudy 10 - - - -
23/04:30am 25.2 ESE 6 9 1011.8 - 0.0 - - 10 - - - -
23/04:00am 25.0 ESE 6 10 1011.7 - 0.0 - - 10 - - - -
23/03:30am 25.2 SE 5 7 1011.6 - 0.0 - Partly cloudy 10 - - - -
23/03:00am 25.5 SE 5 11 1011.4 - 0.0 - Mostly cloudy 10 - - - -
23/02:30am 25.7 SE 7 11 1011.5 - 0.0 - Partly cloudy 10 - - - -
23/02:00am 25.6 SE 6 8 1011.7 - 0.0 - Partly cloudy 10 - - - -
23/01:30am 25.5 ESE 6 9 1011.5 - 0.0 - Partly cloudy 10 - - - -
23/01:00am 25.7 ESE 6 9 1011.8 - 0.0 - Partly cloudy 10 - - - -
23/12:30am 25.8 ESE 6 10 1012.0 - 0.0 - Partly cloudy 10 - - - -
23/12:00am 26.1 ESE 10 16 1012.4 - 0.0 - Mostly cloudy 10 - - - -
 
Date/Time
EST
Temp

°C
Wind Pressure Rain
since 9am
mm
Weather Cloud Vis
km
Sea
Height
m
Swell
Dir
 
Speed
knots
Gust
knots
hPa Trend Height
m
Period
s
Dir
22/11:43pm 26.2 ESE 10 15 1012.7 - 0.0 - Partly cloudy 10 - - - -
22/11:30pm 26.2 ESE 8 12 1012.8 - 0.0 - Partly cloudy 10 - - - -
22/11:04pm 26.3 ESE 11 15 1013.1 - 0.0 - Partly cloudy 10 - - - -
22/11:00pm 26.4 ESE 10 15 1013.1 - 0.0 - Partly cloudy 10 - - - -
22/10:30pm 26.5 ESE 10 17 1013.2 - 0.0 - Partly cloudy 10 - - - -
22/10:00pm 26.5 ESE 10 15 1013.1 - 0.0 - Partly cloudy 10 - - - -
22/09:30pm 26.3 ESE 10 15 1012.8 - 0.0 - Partly cloudy 10 - - - -
22/09:00pm 26.3 ESE 9 13 1012.3 - 0.0 - Mostly clear 10 - - - -
22/08:30pm 26.2 ESE 7 11 1012.4 - 0.0 - Partly cloudy 10 - - - -
22/08:00pm 26.0 SE 6 9 1012.1 - 0.0 - Partly cloudy 10 - - - -
22/07:30pm 26.2 ESE 7 9 1011.7 - 0.0 - - 10 - - - -
22/07:00pm 26.4 ESE 9 13 1011.5 - 0.0 - - 10 - - - -
22/06:30pm 26.7 ESE 13 16 1011.2 - 0.0 - - 10 - - - -
22/06:00pm 27.5 E 13 18 1011.1 - 0.0 - - 10 - - - -
22/05:30pm 28.1 E 14 17 1010.9 - 0.0 - - 10 - - - -
22/05:00pm 28.9 E 14 18 1010.9 - 0.0 - - 10 - - - -
22/04:30pm 29.6 E 13 19 1010.5 - 0.0 - - 10 - - - -
22/04:00pm 29.9 E 14 19 1010.5 - 0.0 - - - - - - -
22/03:30pm 29.7 ESE 14 18 1010.8 - 0.0 - - - - - - -
22/03:00pm 31.2 E 13 17 1011.0 - 0.0 - - 10 - - - -
22/02:30pm 30.4 E 14 18 1011.3 - 0.0 - Partly cloudy 10 - - - -
22/02:00pm 31.2 ESE 13 19 1011.6 - 0.0 - Partly cloudy 10 - - - -
22/01:30pm 30.5 E 13 17 1011.7 - 0.0 - - 10 - - - -
22/01:00pm 30.1 E 14 18 1012.0 - 0.0 - Partly cloudy 10 - - - -
22/12:30pm 30.6 E 12 20 1012.2 - 0.0 - Partly cloudy 10 - - - -
22/12:00pm 28.8 E 13 18 1012.4 - 0.0 - Cloudy 10 - - - -
22/11:30am 28.8 SE 12 15 1012.9 - 0.0 - Partly cloudy 10 - - - -
22/11:00am 29.0 SE 11 16 1013.2 - 0.0 - Partly cloudy 10 - - - -
22/10:30am 28.6 ESE 11 16 1013.7 - 0.0 - Partly cloudy 10 - - - -
22/10:00am 29.0 ESE 10 15 1013.7 - 0.0 - Partly cloudy 10 - - - -
22/09:30am 29.8 ESE 10 16 1013.7 - 0.0 - Partly cloudy 10 - - - -
22/09:00am 29.1 SSE 9 13 1013.8 - 0.0 - Cloudy 10 - - - -
22/08:30am 28.2 ESE 9 13 1013.8 - 0.0 - Partly cloudy 10 - - - -
22/08:00am 28.2 SE 8 13 1013.6 - 0.0 - Partly cloudy 10 - - - -
22/07:30am 27.5 SSE 6 8 1013.5 - 0.0 - Partly cloudy 10 - - - -
22/07:00am 26.2 SSW 4 6 1013.3 - 0.0 - Partly cloudy 10 - - - -
22/06:30am 25.9 SE 4 6 1013.2 - 0.0 - Partly cloudy 10 - - - -
22/06:00am 25.3 SE 5 8 1012.7 - 0.0 - Partly cloudy 10 - - - -
22/05:30am 25.2 ESE 7 9 1012.1 - 0.0 - Partly cloudy 10 - - - -
22/05:00am 25.3 ESE 8 11 1011.9 - 0.0 - Partly cloudy 10 - - - -
22/04:30am 24.9 SE 6 8 1011.8 - 0.0 - Partly cloudy 10 - - - -
22/04:00am 24.7 ESE 7 11 1011.5 - 0.0 - - 10 - - - -
22/03:30am 24.2 ESE 6 7 1011.4 - 0.0 - - 10 - - - -
22/03:00am 24.5 SE 5 7 1011.2 - 0.0 - Mostly clear 10 - - - -
22/02:30am 24.7 ESE 6 9 1011.4 - 0.0 - Partly cloudy 10 - - - -
22/02:00am 24.8 ESE 7 10 1011.5 - 0.0 - - 10 - - - -
22/01:30am 25.1 ESE 8 12 1011.5 - 0.0 - Partly cloudy 10 - - - -
22/01:00am 25.2 SE 6 9 1012.0 - 0.0 - Partly cloudy 10 - - - -
22/12:30am 25.1 SE 6 10 1012.3 - 0.0 - Partly cloudy 10 - - - -
22/12:28am 25.1 SE 6 10 1012.3 - 0.0 - Partly cloudy 10 - - - -
22/12:00am 25.3 SE 7 11 1012.2 - 0.0 - Partly cloudy 10 - - - -
 
Date/Time
EST
Temp

°C
Wind Pressure Rain
since 9am
mm
Weather Cloud Vis
km
Sea
Height
m
Swell
Dir
 
Speed
knots
Gust
knots
hPa Trend Height
m
Period
s
Dir
21/11:54pm 25.4 SE 7 11 1012.3 - 0.0 - Partly cloudy 10 - - - -
21/11:37pm 25.4 ESE 8 11 1012.4 - 0.0 - Partly cloudy 10 - - - -
21/11:30pm 25.5 ESE 8 11 1012.3 - 0.0 - Partly cloudy 10 - - - -
21/11:08pm 25.3 ESE 6 9 1012.7 - 0.0 - Partly cloudy 10 - - - -
21/11:00pm 25.4 ESE 8 11 1012.8 - 0.0 - Partly cloudy 10 - - - -
21/10:30pm 25.6 ESE 9 13 1013.0 - 0.0 - Partly cloudy 10 - - - -
21/10:19pm 25.4 E 9 11 1013.1 - 0.0 - Partly cloudy 10 - - - -
21/10:00pm 25.6 ESE 9 14 1013.2 - 0.0 - Partly cloudy 10 - - - -
21/09:49pm 25.6 ESE 9 13 1013.1 - 0.0 - Partly cloudy 10 - - - -
21/09:30pm 25.6 ESE 9 13 1013.0 - 0.0 - Partly cloudy 10 - - - -
21/09:00pm 25.7 ESE 10 15 1012.4 - 0.0 - Partly cloudy 10 - - - -
21/08:30pm 25.9 E 10 13 1012.3 - 0.0 - Partly cloudy 10 - - - -
21/08:00pm 26.1 ESE 10 13 1011.9 - 0.0 - Partly cloudy 10 - - - -
21/07:30pm 26.2 ESE 9 12 1011.7 - 0.0 - Partly cloudy 10 - - - -
21/07:00pm 26.4 E 10 13 1011.5 - 0.0 - Partly cloudy 10 - - - -
21/06:30pm 26.5 E 11 16 1011.3 - 0.0 - Partly cloudy 10 - - - -
21/06:00pm 27.2 E 13 17 1011.1 - 0.0 - Cloudy 10 - - - -
21/05:30pm 27.5 E 13 17 1011.1 - 0.0 - Partly cloudy 10 - - - -
21/05:18pm 27.5 E 14 18 1011.0 - 0.0 - Partly cloudy 10 - - - -
21/05:05pm 28.3 E 13 17 1010.9 - 0.0 - Partly cloudy 10 - - - -
21/05:00pm 28.3 E 13 18 1010.8 - 0.0 - Partly cloudy 10 - - - -
21/04:30pm 27.9 E 15 18 1010.8 - 0.0 - Partly cloudy 10 - - - -
21/04:00pm 29.9 E 15 21 1010.8 - 0.0 - Partly cloudy 10 - - - -
21/03:30pm 29.4 E 15 21 1011.0 - 0.0 - Partly cloudy 10 - - - -
21/03:00pm 30.4 E 15 19 1011.2 S 0.0 Fine Mostly clear 40 - - - -
21/02:30pm 30.0 E 16 21 1011.3 - 0.0 - - 10 - - - -
21/02:00pm 30.3 E 15 20 1011.8 - 0.0 - Partly cloudy 10 - - - -
21/01:30pm 30.1 E 15 21 1012.2 - 0.0 - Partly cloudy 10 - - - -
21/01:00pm 30.6 E 13 21 1012.4 - 0.0 - Partly cloudy 10 - - - -
21/12:30pm 30.2 E 15 19 1012.8 - 0.0 - Partly cloudy 10 - - - -
21/12:00pm 30.0 E 14 17 1013.1 - 0.0 - Partly cloudy 10 - - - -
21/11:30am 30.0 E 12 16 1013.4 - 0.0 - Partly cloudy 10 - - - -
21/11:00am 29.9 E 13 18 1013.7 - 0.0 - Partly cloudy 10 - - - -
21/10:30am 29.7 E 13 21 1013.9 - 0.0 - Partly cloudy 10 - - - -
21/10:00am 28.9 E 14 18 1014.1 - 0.0 - Partly cloudy 10 - - - -
21/09:30am 29.9 E 13 18 1014.3 - 0.0 - Partly cloudy 10 - - - -
21/09:00am 29.3 E 14 19 1014.0 R 0.0 Fine Partly cloudy 35 - - - -
21/08:30am 28.9 ESE 12 17 1014.1 - 0.0 - Partly cloudy 10 - - - -
21/08:00am 28.5 E 14 19 1013.8 - 0.0 - Partly cloudy 10 - - - -
21/07:30am 28.3 E 13 18 1013.6 - 0.0 - Partly cloudy 10 - - - -
21/07:00am 27.4 ESE 11 16 1013.4 - 0.0 - Partly cloudy 10 - - - -
21/06:30am 26.4 E 10 15 1013.1 - 0.0 - Partly cloudy 10 - - - -
21/06:11am 25.9 E 11 15 1012.8 - 0.0 - Partly cloudy 10 - - - -
21/06:00am 25.7 E 9 13 1012.5 - 0.0 - Cloudy 10 - - - -
21/05:30am 25.7 E 10 13 1012.2 - 0.0 - Partly cloudy 10 - - - -
21/05:26am 25.5 E 10 13 1012.2 - 0.0 - Partly cloudy 10 - - - -

Other Formats:

Comma delimited format used in spreadsheet applications
http://www.bom.gov.au/fwo/IDQ60701/IDQ60701.95283.axf

JavaScript Object Notation format (JSON) in row-major order
http://www.bom.gov.au/fwo/IDQ60701/IDQ60701.95283.json